createdAt,value
2023-04-16T00:01:12.753Z,49.08
2023-04-16T00:03:39.921Z,56.03
2023-04-16T00:06:07.416Z,43.80
2023-04-16T00:08:35.960Z,40.63
2023-04-16T00:11:03.012Z,42.13
2023-04-16T00:13:30.212Z,50.80
2023-04-16T00:15:57.320Z,41.72
2023-04-16T00:18:24.415Z,49.72
2023-04-16T00:20:52.325Z,73.43
2023-04-16T00:23:19.931Z,44.53
2023-04-16T00:25:47.205Z,41.88
2023-04-16T00:28:14.196Z,56.35
2023-04-16T00:30:41.382Z,50.30
2023-04-16T00:33:08.436Z,53.67
2023-04-16T00:35:35.670Z,120.53
2023-04-16T00:38:02.797Z,95.43
2023-04-16T00:40:30.717Z,104.15
2023-04-16T00:42:57.787Z,76.75
2023-04-16T00:45:24.874Z,97.75
2023-04-16T00:47:52.086Z,130.60
2023-04-16T00:50:19.215Z,79.50
2023-04-16T00:52:48.756Z,114.95
2023-04-16T00:55:17.818Z,110.80
2023-04-16T00:57:46.041Z,152.50
2023-04-16T01:00:13.623Z,152.73
2023-04-16T01:02:40.855Z,112.43
2023-04-16T01:05:08.281Z,129.13
2023-04-16T01:07:35.388Z,150.35
2023-04-16T01:10:03.581Z,128.18
2023-04-16T01:12:30.849Z,160.82
2023-04-16T01:14:58.048Z,162.23
2023-04-16T01:17:25.172Z,225.23
2023-04-16T01:19:52.238Z,147.65
2023-04-16T01:22:19.753Z,143.48
2023-04-16T01:24:46.733Z,157.10
2023-04-16T01:27:13.780Z,129.27
2023-04-16T01:29:41.016Z,134.55
2023-04-16T01:32:08.052Z,166.60
2023-04-16T01:34:35.068Z,164.18
2023-04-16T01:37:03.457Z,185.35
2023-04-16T01:39:30.618Z,139.65
2023-04-16T01:41:57.685Z,149.23
2023-04-16T01:44:25.649Z,122.50
2023-04-16T01:46:52.837Z,144.25
2023-04-16T01:49:19.956Z,146.05
2023-04-16T01:51:47.122Z,99.47
2023-04-16T01:54:14.255Z,127.35
2023-04-16T01:56:41.283Z,94.28
2023-04-16T01:59:08.610Z,138.70
2023-04-16T02:01:35.956Z,107.05
2023-04-16T02:04:03.063Z,141.20
2023-04-16T02:06:30.796Z,108.85
2023-04-16T02:08:57.912Z,107.03
2023-04-16T02:11:24.974Z,121.55
2023-04-16T02:13:52.026Z,107.95
2023-04-16T02:16:19.131Z,85.20
2023-04-16T02:18:46.160Z,104.20
2023-04-16T02:21:14.129Z,82.45
2023-04-16T02:23:41.553Z,126.63
2023-04-16T02:26:08.580Z,101.72
2023-04-16T02:28:35.589Z,113.53
2023-04-16T02:31:02.642Z,97.38
2023-04-16T02:33:29.749Z,85.32
2023-04-16T02:35:56.824Z,94.95
2023-04-16T02:38:23.890Z,89.43
2023-04-16T02:40:51.008Z,102.07
2023-04-16T02:43:18.041Z,79.38
2023-04-16T02:45:45.469Z,84.57
2023-04-16T02:48:12.572Z,73.30
2023-04-16T02:50:39.645Z,92.55
2023-04-16T02:53:07.981Z,79.13
2023-04-16T02:55:35.041Z,77.78
2023-04-16T02:58:02.183Z,82.63
2023-04-16T03:00:29.188Z,116.65
2023-04-16T03:02:56.483Z,109.38
2023-04-16T03:05:23.585Z,122.75
2023-04-16T03:07:56.681Z,89.45
2023-04-16T03:10:27.043Z,71.65
2023-04-16T03:12:54.126Z,133.73
2023-04-16T03:15:21.256Z,103.13
2023-04-16T03:17:48.313Z,81.72
2023-04-16T03:20:17.180Z,74.60
2023-04-16T03:22:44.238Z,74.45
2023-04-16T03:25:11.358Z,99.15
2023-04-16T03:27:39.912Z,86.95
2023-04-16T03:30:12.549Z,130.27
2023-04-16T03:32:40.268Z,164.25
2023-04-16T03:35:08.058Z,121.75
2023-04-16T03:37:35.686Z,155.60
2023-04-16T03:40:03.721Z,135.00
2023-04-16T03:42:30.709Z,115.53
2023-04-16T03:44:57.828Z,143.45
2023-04-16T03:47:24.900Z,161.88
2023-04-16T03:49:51.999Z,125.15
2023-04-16T03:52:18.983Z,149.15
2023-04-16T03:54:46.010Z,138.70
2023-04-16T03:57:13.161Z,149.00
2023-04-16T03:59:40.192Z,155.52
2023-04-16T04:02:07.247Z,147.65
2023-04-16T04:04:34.489Z,261.88
2023-04-16T04:07:01.641Z,206.82
2023-04-16T04:09:28.674Z,138.10
2023-04-16T04:11:55.728Z,314.30
2023-04-16T04:14:22.843Z,393.95
2023-04-16T04:16:49.974Z,226.95
2023-04-16T04:19:17.047Z,172.68
2023-04-16T04:21:44.120Z,159.00
2023-04-16T04:24:11.156Z,159.82
2023-04-16T04:26:38.253Z,135.85
2023-04-16T04:29:05.879Z,129.07
2023-04-16T04:31:32.959Z,124.10
2023-04-16T04:34:00.037Z,175.10
2023-04-16T04:36:27.581Z,117.90
2023-04-16T04:38:54.699Z,154.27
2023-04-16T04:41:21.938Z,113.25
2023-04-16T04:43:49.096Z,118.22
2023-04-16T04:46:16.387Z,118.35
2023-04-16T04:48:43.400Z,119.78
2023-04-16T04:51:10.692Z,101.72
2023-04-16T04:53:37.756Z,111.25
2023-04-16T04:56:11.802Z,109.70
2023-04-16T04:58:40.759Z,138.60
2023-04-16T05:01:07.782Z,124.88
2023-04-16T05:03:34.903Z,130.52
2023-04-16T05:06:01.967Z,138.95
2023-04-16T05:08:29.032Z,125.75
2023-04-16T05:10:59.141Z,101.80
2023-04-16T05:13:26.362Z,104.82
2023-04-16T05:15:53.387Z,115.05
2023-04-16T05:18:20.483Z,96.93
2023-04-16T05:20:47.500Z,116.20
2023-04-16T05:23:15.800Z,107.57
2023-04-16T05:25:43.125Z,93.97
2023-04-16T05:28:10.907Z,109.60
2023-04-16T05:30:38.020Z,83.60
2023-04-16T05:33:05.082Z,107.07
2023-04-16T05:35:32.147Z,90.05
2023-04-16T05:37:59.197Z,95.85
2023-04-16T05:40:26.560Z,84.45
2023-04-16T05:42:53.805Z,93.93
2023-04-16T05:45:21.294Z,108.13
2023-04-16T05:47:48.602Z,95.43
2023-04-16T05:50:16.276Z,98.88
2023-04-16T05:52:43.631Z,116.68
2023-04-16T05:55:11.162Z,100.38
2023-04-16T05:57:38.414Z,124.70
2023-04-16T06:00:06.305Z,185.82
2023-04-16T06:02:34.162Z,145.75
2023-04-16T06:05:01.733Z,161.10
2023-04-16T06:07:29.204Z,107.38
2023-04-16T06:09:56.633Z,143.30
2023-04-16T06:12:23.903Z,143.20
2023-04-16T06:14:51.290Z,167.13
2023-04-16T06:17:19.650Z,166.77
2023-04-16T06:19:46.900Z,104.47
2023-04-16T06:22:14.425Z,133.07
2023-04-16T06:24:42.138Z,139.60
2023-04-16T06:27:09.413Z,135.23
2023-04-16T06:29:41.108Z,172.27
2023-04-16T06:32:09.451Z,109.70
2023-04-16T06:34:38.054Z,130.68
2023-04-16T06:37:05.600Z,119.88
2023-04-16T06:39:33.765Z,114.60
2023-04-16T06:42:01.699Z,110.15
2023-04-16T06:44:29.095Z,118.88
2023-04-16T06:46:56.401Z,173.68
2023-04-16T06:49:23.707Z,112.45
2023-04-16T06:51:51.166Z,168.13
2023-04-16T06:54:20.052Z,115.68
2023-04-16T06:56:47.352Z,156.30
2023-04-16T06:59:14.582Z,119.53
2023-04-16T07:01:41.956Z,113.53
2023-04-16T07:04:10.225Z,107.32
2023-04-16T07:06:37.547Z,126.05
2023-04-16T07:09:05.052Z,126.45
2023-04-16T07:11:35.938Z,119.32
2023-04-16T07:14:03.973Z,114.15
2023-04-16T07:16:31.381Z,83.45
2023-04-16T07:18:58.670Z,107.55
2023-04-16T07:21:26.555Z,98.53
2023-04-16T07:23:54.207Z,96.63
2023-04-16T07:26:21.534Z,112.18
2023-04-16T07:28:48.682Z,92.47
2023-04-16T07:31:19.115Z,102.40
2023-04-16T07:33:46.419Z,102.20
2023-04-16T07:36:14.382Z,96.07
2023-04-16T07:38:41.842Z,85.63
2023-04-16T07:41:09.109Z,98.50
2023-04-16T07:43:36.489Z,90.25
2023-04-16T07:46:04.031Z,102.15
2023-04-16T07:48:31.449Z,94.85
2023-04-16T07:50:58.886Z,91.78
2023-04-16T07:53:26.578Z,89.78
2023-04-16T07:55:55.257Z,98.75
2023-04-16T07:58:22.548Z,95.50
2023-04-16T08:00:51.046Z,95.07
2023-04-16T08:03:18.782Z,82.60
2023-04-16T08:05:46.300Z,85.55
2023-04-16T08:08:13.642Z,81.22
2023-04-16T08:10:40.988Z,86.07
2023-04-16T08:13:08.231Z,82.80
2023-04-16T08:15:35.578Z,86.15
2023-04-16T08:18:02.908Z,74.65
2023-04-16T08:20:30.254Z,81.07
2023-04-16T08:22:57.528Z,78.93
2023-04-16T08:25:25.054Z,83.82
2023-04-16T08:27:52.233Z,78.90
2023-04-16T08:30:19.546Z,76.63
2023-04-16T08:32:49.915Z,69.15
2023-04-16T08:35:17.621Z,67.32
2023-04-16T08:37:44.882Z,60.08
2023-04-16T08:40:12.495Z,58.42
2023-04-16T08:43:00.687Z,64.60
2023-04-16T08:45:28.289Z,55.55
2023-04-16T08:47:55.662Z,59.92
2023-04-16T08:50:28.761Z,64.07
2023-04-16T08:53:06.821Z,61.13
2023-04-16T08:55:39.815Z,55.53
2023-04-16T08:58:18.777Z,52.90
2023-04-16T09:00:46.896Z,56.03
2023-04-16T09:03:14.358Z,49.42
2023-04-16T09:05:43.228Z,51.58
2023-04-16T09:08:10.673Z,47.00
2023-04-16T09:10:38.090Z,50.22
2023-04-16T09:13:05.479Z,46.30
2023-04-16T09:15:35.203Z,48.65
2023-04-16T09:18:02.609Z,44.50
2023-04-16T09:20:29.986Z,48.90
2023-04-16T09:22:57.580Z,47.90
2023-04-16T09:25:26.653Z,45.88
2023-04-16T09:27:56.340Z,43.72
2023-04-16T09:30:26.504Z,45.45
2023-04-16T09:33:23.019Z,42.78
2023-04-16T09:35:52.867Z,43.30
2023-04-16T09:38:21.376Z,41.97
2023-04-16T09:40:48.830Z,42.45
2023-04-16T09:43:19.369Z,37.42
2023-04-16T09:45:54.583Z,44.15
2023-04-16T09:48:32.787Z,38.92
2023-04-16T09:51:01.230Z,45.72
2023-04-16T09:53:31.001Z,37.42
2023-04-16T09:55:59.688Z,32.90
2023-04-16T09:58:27.300Z,43.50
2023-04-16T10:01:01.946Z,39.13
2023-04-16T10:03:37.071Z,39.53
2023-04-16T10:06:08.484Z,39.53
2023-04-16T10:08:36.587Z,39.35
2023-04-16T10:11:03.969Z,40.88
2023-04-16T10:13:32.352Z,41.85
2023-04-16T10:16:00.329Z,40.35
2023-04-16T10:18:29.354Z,34.47
2023-04-16T10:20:57.748Z,34.22
2023-04-16T10:23:24.974Z,35.50
2023-04-16T10:25:56.433Z,36.45
2023-04-16T10:28:29.384Z,37.03
2023-04-16T10:30:58.788Z,33.08
2023-04-16T10:33:35.005Z,33.58
2023-04-16T10:36:12.802Z,32.00
2023-04-16T10:38:42.256Z,36.08
2023-04-16T10:41:10.156Z,32.00
2023-04-16T10:43:41.772Z,31.58
2023-04-16T10:46:24.972Z,33.92
2023-04-16T10:48:55.177Z,31.55
2023-04-16T10:51:33.850Z,32.58
2023-04-16T10:54:11.468Z,33.00
2023-04-16T10:56:38.936Z,30.40
2023-04-16T10:59:07.845Z,27.20
2023-04-16T11:01:41.122Z,29.38
2023-04-16T11:04:20.471Z,31.83
2023-04-16T11:07:07.452Z,32.63
2023-04-16T11:10:00.221Z,28.50
2023-04-16T11:12:36.070Z,30.63
2023-04-16T11:15:05.080Z,28.27
2023-04-16T11:17:52.229Z,28.65
2023-04-16T11:20:20.040Z,31.10
2023-04-16T11:22:51.801Z,32.25
2023-04-16T11:25:30.319Z,32.85
2023-04-16T11:27:59.333Z,30.30
2023-04-16T11:30:31.758Z,28.35
2023-04-16T11:32:58.956Z,28.17
2023-04-16T11:35:26.303Z,25.30
2023-04-16T11:37:57.225Z,25.30
2023-04-16T11:40:25.530Z,26.48
2023-04-16T11:42:52.640Z,26.90
2023-04-16T11:45:19.690Z,24.23
2023-04-16T11:47:56.933Z,23.52
2023-04-16T11:50:28.352Z,20.80
2023-04-16T11:52:57.710Z,22.65
2023-04-16T11:55:25.015Z,22.65
2023-04-16T11:57:52.714Z,22.27
2023-04-16T12:00:23.110Z,23.55
2023-04-16T12:02:53.870Z,21.02
2023-04-16T12:05:39.502Z,20.25
2023-04-16T12:08:09.060Z,19.70
2023-04-16T12:10:38.348Z,21.48
2023-04-16T12:13:17.966Z,22.45
2023-04-16T12:15:48.850Z,18.92
2023-04-16T12:18:17.188Z,19.88
2023-04-16T12:20:45.088Z,22.25
2023-04-16T12:23:26.371Z,24.88
2023-04-16T12:26:10.888Z,17.50
2023-04-16T12:28:38.810Z,23.88
2023-04-16T12:31:06.557Z,18.85
2023-04-16T12:33:33.749Z,20.50
2023-04-16T12:36:02.339Z,16.77
2023-04-16T12:38:30.060Z,18.90
2023-04-16T12:40:58.483Z,20.55
2023-04-16T12:43:26.097Z,17.00
2023-04-16T12:45:53.276Z,19.30
2023-04-16T12:48:20.480Z,16.80
2023-04-16T12:50:47.712Z,18.73
2023-04-16T12:53:14.837Z,20.30
2023-04-16T12:55:42.120Z,20.67
2023-04-16T12:58:11.901Z,19.60
2023-04-16T13:00:40.045Z,16.48
2023-04-16T13:03:07.308Z,19.60
2023-04-16T13:05:34.632Z,19.90
2023-04-16T13:08:01.707Z,16.30
2023-04-16T13:10:28.811Z,19.65
2023-04-16T13:12:56.158Z,17.67
2023-04-16T13:15:23.183Z,19.75
2023-04-16T13:17:50.281Z,17.38
2023-04-16T13:20:17.453Z,19.88
2023-04-16T13:22:44.500Z,18.55
2023-04-16T13:25:11.771Z,18.80
2023-04-16T13:27:38.800Z,17.50
2023-04-16T13:30:06.745Z,18.63
2023-04-16T13:32:33.859Z,17.33
2023-04-16T13:35:01.024Z,17.90
2023-04-16T13:37:28.068Z,15.52
2023-04-16T13:39:55.229Z,16.95
2023-04-16T13:42:22.308Z,20.02
2023-04-16T13:44:53.183Z,14.70
2023-04-16T13:47:20.359Z,16.63
2023-04-16T13:49:47.785Z,15.38
2023-04-16T13:52:14.800Z,17.38
2023-04-16T13:54:42.077Z,18.48
2023-04-16T13:57:12.785Z,17.02
2023-04-16T13:59:39.940Z,18.83
2023-04-16T14:02:07.256Z,14.15
2023-04-16T14:04:34.344Z,17.13
2023-04-16T14:07:01.419Z,17.02
2023-04-16T14:09:28.486Z,16.50
2023-04-16T14:11:56.010Z,16.73
2023-04-16T14:14:23.048Z,15.55
2023-04-16T14:16:50.209Z,15.57
2023-04-16T14:19:17.385Z,14.98
2023-04-16T14:21:44.461Z,19.45
2023-04-16T14:24:12.737Z,18.85
2023-04-16T14:26:39.841Z,18.52
2023-04-16T14:29:07.018Z,15.70
2023-04-16T14:31:34.093Z,17.00
2023-04-16T14:34:01.478Z,17.15
2023-04-16T14:36:28.697Z,18.67
2023-04-16T14:38:55.873Z,17.90
2023-04-16T14:41:22.892Z,17.90
2023-04-16T14:43:49.966Z,20.42
2023-04-16T14:46:19.971Z,18.38
2023-04-16T14:48:47.080Z,19.13
2023-04-16T14:51:14.284Z,23.65
2023-04-16T14:53:41.587Z,18.73
2023-04-16T14:56:08.650Z,20.65
2023-04-16T14:58:37.922Z,18.40
2023-04-16T15:01:06.366Z,18.88
2023-04-16T15:03:33.679Z,19.90
2023-04-16T15:06:01.680Z,19.48
2023-04-16T15:08:28.788Z,17.80
2023-04-16T15:10:55.837Z,18.95
2023-04-16T15:13:22.887Z,18.48
2023-04-16T15:15:50.143Z,18.45
2023-04-16T15:18:17.449Z,20.90
2023-04-16T15:20:44.551Z,20.33
2023-04-16T15:23:11.725Z,22.40
2023-04-16T15:25:38.758Z,20.25
2023-04-16T15:28:06.660Z,18.48
2023-04-16T15:30:33.897Z,19.40
2023-04-16T15:33:01.228Z,21.58
2023-04-16T15:35:28.473Z,24.02
2023-04-16T15:37:55.518Z,20.20
2023-04-16T15:40:22.744Z,20.70
2023-04-16T15:42:49.913Z,19.23
2023-04-16T15:45:17.175Z,20.17
2023-04-16T15:47:51.300Z,24.45
2023-04-16T15:52:47.197Z,21.20
2023-04-16T15:55:15.637Z,22.45
2023-04-16T15:57:42.679Z,20.42
2023-04-16T16:00:21.334Z,25.58
2023-04-16T16:02:48.484Z,21.10
2023-04-16T16:05:17.012Z,24.00
2023-04-16T16:07:44.905Z,24.38
2023-04-16T16:10:15.086Z,22.17
2023-04-16T16:12:42.275Z,18.98
2023-04-16T16:15:11.266Z,20.00
2023-04-16T16:17:39.156Z,23.25
2023-04-16T16:20:09.591Z,24.63
2023-04-16T16:22:38.403Z,20.70
2023-04-16T16:25:06.452Z,26.23
2023-04-16T16:27:33.446Z,28.08
2023-04-16T16:30:01.046Z,21.60
2023-04-16T16:32:28.164Z,23.67
2023-04-16T16:34:56.163Z,24.85
2023-04-16T16:37:23.229Z,25.58
2023-04-16T16:39:50.286Z,23.85
2023-04-16T16:42:19.050Z,25.00
2023-04-16T16:44:49.555Z,21.58
2023-04-16T16:47:16.679Z,23.55
2023-04-16T16:49:44.438Z,26.75
2023-04-16T16:52:11.611Z,26.52
2023-04-16T16:54:38.613Z,26.33
2023-04-16T16:57:05.863Z,28.40
2023-04-16T16:59:32.981Z,26.65
2023-04-16T17:02:00.044Z,26.80
2023-04-16T17:04:27.148Z,27.70
2023-04-16T17:06:54.284Z,31.73
2023-04-16T17:09:21.624Z,25.52
2023-04-16T17:11:48.643Z,28.50
2023-04-16T17:14:15.765Z,26.75
2023-04-16T17:16:43.854Z,22.23
2023-04-16T17:19:12.407Z,24.70
2023-04-16T17:21:39.543Z,32.88
2023-04-16T17:24:06.668Z,23.63
2023-04-16T17:26:33.695Z,24.50
2023-04-16T17:29:00.873Z,25.52
2023-04-16T17:31:28.424Z,24.20
2023-04-16T17:33:55.535Z,23.85
2023-04-16T17:36:23.341Z,24.77
2023-04-16T17:38:50.813Z,24.45
2023-04-16T17:41:17.987Z,22.35
2023-04-16T17:43:48.919Z,22.60
2023-04-16T17:46:16.196Z,26.40
2023-04-16T17:48:48.982Z,27.52
2023-04-16T17:51:19.004Z,23.67
2023-04-16T17:53:46.055Z,21.05
2023-04-16T17:56:14.114Z,23.05
2023-04-16T17:58:41.248Z,27.33
2023-04-16T18:01:08.464Z,26.38
2023-04-16T18:03:37.361Z,24.13
2023-04-16T18:06:05.609Z,26.23
2023-04-16T18:08:33.894Z,26.77
2023-04-16T18:11:03.381Z,23.60
2023-04-16T18:13:30.596Z,28.25
2023-04-16T18:15:57.685Z,26.13
2023-04-16T18:18:24.716Z,28.77
2023-04-16T18:20:52.725Z,25.95
2023-04-16T18:23:19.811Z,28.13
2023-04-16T18:25:48.793Z,29.70
2023-04-16T18:28:17.893Z,24.88
2023-04-16T18:30:45.313Z,28.30
2023-04-16T18:33:42.757Z,30.92
2023-04-16T18:36:06.315Z,41.40
2023-04-16T18:38:33.528Z,31.40
2023-04-16T18:41:02.190Z,32.20
2023-04-16T18:43:29.514Z,28.60
2023-04-16T18:45:56.714Z,27.38
2023-04-16T18:48:23.832Z,34.40
2023-04-16T18:50:51.217Z,24.48
2023-04-16T18:53:20.790Z,26.65
2023-04-16T18:55:52.848Z,23.65
2023-04-16T18:58:22.653Z,25.83
2023-04-16T19:00:59.035Z,29.58
2023-04-16T19:03:29.664Z,27.98
2023-04-16T19:06:00.268Z,26.30
2023-04-16T19:08:27.457Z,27.20
2023-04-16T19:10:59.138Z,28.20
2023-04-16T19:13:26.400Z,29.73
2023-04-16T19:16:02.989Z,26.13
2023-04-16T19:18:32.729Z,23.67
2023-04-16T19:21:01.847Z,29.63
2023-04-16T19:23:34.504Z,29.77
2023-04-16T19:26:04.756Z,28.57
2023-04-16T19:28:31.998Z,30.17
2023-04-16T19:30:58.991Z,26.27
2023-04-16T19:33:28.679Z,34.45
2023-04-16T19:35:56.255Z,29.33
2023-04-16T19:38:23.905Z,30.08
2023-04-16T19:40:51.350Z,26.90
2023-04-16T19:43:18.618Z,28.13
2023-04-16T19:45:47.818Z,28.15
2023-04-16T19:48:17.519Z,29.00
2023-04-16T19:50:47.271Z,28.30
2023-04-16T19:53:16.172Z,34.25
2023-04-16T19:55:43.255Z,30.98
2023-04-16T19:58:12.100Z,34.72
2023-04-16T20:00:43.748Z,31.58
2023-04-16T20:03:12.810Z,36.00
2023-04-16T20:05:40.054Z,33.85
2023-04-16T20:08:07.209Z,33.08
2023-04-16T20:10:34.533Z,33.67
2023-04-16T20:13:01.756Z,33.72
2023-04-16T20:15:29.157Z,37.92
2023-04-16T20:17:56.491Z,35.45
2023-04-16T20:20:23.951Z,37.10
2023-04-16T20:22:51.400Z,36.92
2023-04-16T20:25:19.535Z,41.10
2023-04-16T20:27:46.845Z,37.38
2023-04-16T20:30:14.443Z,39.35
2023-04-16T20:32:41.529Z,43.72
2023-04-16T20:35:11.359Z,37.35
2023-04-16T20:37:38.850Z,39.80
2023-04-16T20:40:09.666Z,39.60
2023-04-16T20:42:36.748Z,41.15
2023-04-16T20:45:03.965Z,43.70
2023-04-16T20:47:30.967Z,38.47
2023-04-16T20:49:58.378Z,41.15
2023-04-16T20:52:26.048Z,46.95
2023-04-16T20:54:53.207Z,48.10
2023-04-16T20:57:20.341Z,44.97
2023-04-16T20:59:48.400Z,46.60
2023-04-16T21:02:15.608Z,55.63
2023-04-16T21:04:43.009Z,47.08
2023-04-16T21:07:10.233Z,46.60
2023-04-16T21:09:37.357Z,44.08
2023-04-16T21:12:04.628Z,53.00
2023-04-16T21:14:31.697Z,47.47
2023-04-16T21:16:58.783Z,57.80
2023-04-16T21:19:25.923Z,50.63
2023-04-16T21:21:52.961Z,56.67
2023-04-16T21:24:20.094Z,51.92
2023-04-16T21:26:47.121Z,52.25
2023-04-16T21:29:14.262Z,57.05
2023-04-16T21:31:43.825Z,57.75
2023-04-16T21:34:10.885Z,58.60
2023-04-16T21:36:37.958Z,57.40
2023-04-16T21:39:05.054Z,59.92
2023-04-16T21:41:32.119Z,57.88
2023-04-16T21:43:59.138Z,63.38
2023-04-16T21:46:26.873Z,58.65
2023-04-16T21:48:54.006Z,64.43
2023-04-16T21:51:29.221Z,61.65
2023-04-16T21:53:57.247Z,61.08
2023-04-16T21:56:27.294Z,56.25
2023-04-16T21:58:54.360Z,52.75
2023-04-16T22:01:22.134Z,50.90
2023-04-16T22:03:52.252Z,55.30
2023-04-16T22:06:20.675Z,51.28
2023-04-16T22:08:49.992Z,45.10
2023-04-16T22:11:17.251Z,39.53
2023-04-16T22:13:46.455Z,37.58
2023-04-16T22:16:13.634Z,37.28
2023-04-16T22:18:41.294Z,31.42
2023-04-16T22:21:08.404Z,32.83
2023-04-16T22:23:35.703Z,29.67
2023-04-16T22:26:03.074Z,27.38
2023-04-16T22:28:30.361Z,32.45
2023-04-16T22:30:57.570Z,29.63
2023-04-16T22:33:24.733Z,29.05
2023-04-16T22:35:51.891Z,30.95
2023-04-16T22:38:18.911Z,32.67
2023-04-16T22:40:49.009Z,30.48
2023-04-16T22:43:17.704Z,29.13
2023-04-16T22:45:46.549Z,31.33
2023-04-16T22:48:13.657Z,29.17
2023-04-16T22:50:45.983Z,33.47
2023-04-16T22:53:13.117Z,35.85
2023-04-16T22:55:40.176Z,36.00
2023-04-16T22:58:07.180Z,35.38
2023-04-16T23:00:34.393Z,35.00
2023-04-16T23:03:01.656Z,38.95
2023-04-16T23:05:28.924Z,34.13
2023-04-16T23:07:56.131Z,38.95
2023-04-16T23:10:23.271Z,38.25
2023-04-16T23:12:50.604Z,39.88
2023-04-16T23:15:17.784Z,39.05
2023-04-16T23:17:45.690Z,45.92
2023-04-16T23:20:14.804Z,39.47
2023-04-16T23:22:42.097Z,43.83
2023-04-16T23:25:09.736Z,45.70
2023-04-16T23:27:37.175Z,52.25
2023-04-16T23:30:05.478Z,47.05
2023-04-16T23:32:34.285Z,58.72
2023-04-16T23:35:01.582Z,49.50
2023-04-16T23:37:28.753Z,47.35
2023-04-16T23:39:55.862Z,46.13
2023-04-16T23:42:22.908Z,43.47
2023-04-16T23:44:49.972Z,49.20
2023-04-16T23:47:17.002Z,46.03
2023-04-16T23:49:44.027Z,42.42
2023-04-16T23:52:11.090Z,44.35
2023-04-16T23:54:38.135Z,42.60
2023-04-16T23:57:05.352Z,42.80
2023-04-16T23:59:32.417Z,50.53
